sensor_id;sensor_type;location;lat;lon;timestamp;P1;durP1;ratioP1;P2;durP2;ratioP2
74503;SDS011;62988;55.776;37.544;2023-07-08T00:00:25;12.45;;;7.20;;
74503;SDS011;62988;55.776;37.544;2023-07-08T00:02:50;10.77;;;7.63;;
74503;SDS011;62988;55.776;37.544;2023-07-08T00:05:16;11.88;;;8.23;;
74503;SDS011;62988;55.776;37.544;2023-07-08T00:07:41;9.68;;;7.00;;
74503;SDS011;62988;55.776;37.544;2023-07-08T00:12:42;13.20;;;7.60;;
74503;SDS011;62988;55.776;37.544;2023-07-08T00:15:08;12.60;;;7.63;;
74503;SDS011;62988;55.776;37.544;2023-07-08T00:17:33;10.40;;;7.35;;
74503;SDS011;62988;55.776;37.544;2023-07-08T00:19:59;9.88;;;7.35;;
74503;SDS011;62988;55.776;37.544;2023-07-08T00:22:24;9.93;;;7.17;;
74503;SDS011;62988;55.776;37.544;2023-07-08T00:24:50;10.90;;;7.18;;
74503;SDS011;62988;55.776;37.544;2023-07-08T00:27:15;10.55;;;6.82;;
74503;SDS011;62988;55.776;37.544;2023-07-08T00:29:40;12.27;;;7.53;;
74503;SDS011;62988;55.776;37.544;2023-07-08T00:32:09;11.50;;;7.32;;
74503;SDS011;62988;55.776;37.544;2023-07-08T00:34:35;13.35;;;7.57;;
74503;SDS011;62988;55.776;37.544;2023-07-08T00:37:00;12.73;;;7.73;;
74503;SDS011;62988;55.776;37.544;2023-07-08T00:39:30;10.25;;;7.20;;
74503;SDS011;62988;55.776;37.544;2023-07-08T00:41:55;11.20;;;7.72;;
74503;SDS011;62988;55.776;37.544;2023-07-08T00:44:21;10.65;;;6.60;;
74503;SDS011;62988;55.776;37.544;2023-07-08T00:46:48;10.23;;;6.57;;
74503;SDS011;62988;55.776;37.544;2023-07-08T00:49:34;10.57;;;6.88;;
74503;SDS011;62988;55.776;37.544;2023-07-08T00:52:18;11.68;;;7.93;;
74503;SDS011;62988;55.776;37.544;2023-07-08T00:54:44;13.65;;;8.10;;
74503;SDS011;62988;55.776;37.544;2023-07-08T00:57:09;11.02;;;7.53;;
74503;SDS011;62988;55.776;37.544;2023-07-08T00:59:41;13.88;;;7.35;;
74503;SDS011;62988;55.776;37.544;2023-07-08T01:02:09;11.20;;;7.25;;
74503;SDS011;62988;55.776;37.544;2023-07-08T01:07:07;11.63;;;7.28;;
74503;SDS011;62988;55.776;37.544;2023-07-08T01:09:34;12.13;;;7.38;;
74503;SDS011;62988;55.776;37.544;2023-07-08T01:12:02;11.32;;;6.93;;
74503;SDS011;62988;55.776;37.544;2023-07-08T01:14:30;13.27;;;7.97;;
74503;SDS011;62988;55.776;37.544;2023-07-08T01:16:56;12.82;;;7.43;;
74503;SDS011;62988;55.776;37.544;2023-07-08T01:19:22;13.25;;;7.20;;
74503;SDS011;62988;55.776;37.544;2023-07-08T01:24:23;9.93;;;6.97;;
74503;SDS011;62988;55.776;37.544;2023-07-08T01:26:49;11.25;;;6.97;;
74503;SDS011;62988;55.776;37.544;2023-07-08T01:29:14;11.93;;;7.10;;
74503;SDS011;62988;55.776;37.544;2023-07-08T01:31:39;11.07;;;6.80;;
74503;SDS011;62988;55.776;37.544;2023-07-08T01:34:05;12.13;;;7.13;;
74503;SDS011;62988;55.776;37.544;2023-07-08T01:36:34;11.35;;;7.25;;
74503;SDS011;62988;55.776;37.544;2023-07-08T01:39:02;11.50;;;7.35;;
74503;SDS011;62988;55.776;37.544;2023-07-08T01:41:28;17.13;;;7.82;;
74503;SDS011;62988;55.776;37.544;2023-07-08T01:43:53;13.23;;;7.33;;
74503;SDS011;62988;55.776;37.544;2023-07-08T01:46:22;12.43;;;7.10;;
74503;SDS011;62988;55.776;37.544;2023-07-08T01:48:50;11.98;;;7.57;;
74503;SDS011;62988;55.776;37.544;2023-07-08T01:51:17;13.35;;;7.43;;
74503;SDS011;62988;55.776;37.544;2023-07-08T01:53:42;11.80;;;7.15;;
74503;SDS011;62988;55.776;37.544;2023-07-08T01:56:09;10.60;;;7.70;;
74503;SDS011;62988;55.776;37.544;2023-07-08T01:58:34;14.57;;;9.15;;
74503;SDS011;62988;55.776;37.544;2023-07-08T02:01:00;13.73;;;8.33;;
74503;SDS011;62988;55.776;37.544;2023-07-08T02:03:25;10.23;;;6.57;;
74503;SDS011;62988;55.776;37.544;2023-07-08T02:05:51;10.90;;;7.30;;
74503;SDS011;62988;55.776;37.544;2023-07-08T02:08:16;11.07;;;7.50;;
74503;SDS011;62988;55.776;37.544;2023-07-08T02:10:42;11.47;;;7.33;;
74503;SDS011;62988;55.776;37.544;2023-07-08T02:13:07;10.52;;;7.10;;
74503;SDS011;62988;55.776;37.544;2023-07-08T02:15:33;12.27;;;7.60;;
74503;SDS011;62988;55.776;37.544;2023-07-08T02:17:58;12.05;;;7.85;;
74503;SDS011;62988;55.776;37.544;2023-07-08T02:20:23;12.70;;;8.47;;
74503;SDS011;62988;55.776;37.544;2023-07-08T02:22:49;14.32;;;8.02;;
74503;SDS011;62988;55.776;37.544;2023-07-08T02:25:14;10.48;;;7.80;;
74503;SDS011;62988;55.776;37.544;2023-07-08T02:27:40;14.13;;;7.65;;
74503;SDS011;62988;55.776;37.544;2023-07-08T02:30:06;13.47;;;8.53;;
74503;SDS011;62988;55.776;37.544;2023-07-08T02:32:31;13.70;;;8.63;;
74503;SDS011;62988;55.776;37.544;2023-07-08T02:34:59;14.68;;;8.45;;
74503;SDS011;62988;55.776;37.544;2023-07-08T02:37:24;11.68;;;7.40;;
74503;SDS011;62988;55.776;37.544;2023-07-08T02:39:50;10.90;;;8.20;;
74503;SDS011;62988;55.776;37.544;2023-07-08T02:42:15;11.60;;;8.00;;
74503;SDS011;62988;55.776;37.544;2023-07-08T02:44:40;11.87;;;7.70;;
74503;SDS011;62988;55.776;37.544;2023-07-08T02:47:06;13.53;;;9.13;;
74503;SDS011;62988;55.776;37.544;2023-07-08T02:49:31;14.87;;;8.00;;
74503;SDS011;62988;55.776;37.544;2023-07-08T02:51:56;11.47;;;7.93;;
74503;SDS011;62988;55.776;37.544;2023-07-08T02:54:21;13.70;;;8.07;;
74503;SDS011;62988;55.776;37.544;2023-07-08T02:56:47;11.27;;;8.07;;
74503;SDS011;62988;55.776;37.544;2023-07-08T02:59:12;12.03;;;8.03;;
74503;SDS011;62988;55.776;37.544;2023-07-08T03:01:37;13.30;;;8.53;;
74503;SDS011;62988;55.776;37.544;2023-07-08T03:04:07;12.65;;;8.32;;
74503;SDS011;62988;55.776;37.544;2023-07-08T03:06:34;13.05;;;8.52;;
74503;SDS011;62988;55.776;37.544;2023-07-08T03:08:59;14.60;;;8.35;;
74503;SDS011;62988;55.776;37.544;2023-07-08T03:11:25;12.13;;;7.93;;
74503;SDS011;62988;55.776;37.544;2023-07-08T03:13:50;16.20;;;8.83;;
74503;SDS011;62988;55.776;37.544;2023-07-08T03:16:15;13.77;;;8.53;;
74503;SDS011;62988;55.776;37.544;2023-07-08T03:18:40;12.37;;;7.87;;
74503;SDS011;62988;55.776;37.544;2023-07-08T03:21:11;12.07;;;8.20;;
74503;SDS011;62988;55.776;37.544;2023-07-08T03:23:37;12.90;;;8.35;;
74503;SDS011;62988;55.776;37.544;2023-07-08T03:26:02;13.47;;;8.17;;
74503;SDS011;62988;55.776;37.544;2023-07-08T03:28:28;12.83;;;7.97;;
74503;SDS011;62988;55.776;37.544;2023-07-08T03:30:53;12.10;;;8.40;;
74503;SDS011;62988;55.776;37.544;2023-07-08T03:33:18;13.10;;;8.52;;
74503;SDS011;62988;55.776;37.544;2023-07-08T03:35:44;10.70;;;7.50;;
74503;SDS011;62988;55.776;37.544;2023-07-08T03:38:10;12.48;;;7.18;;
74503;SDS011;62988;55.776;37.544;2023-07-08T03:40:35;10.70;;;7.50;;
74503;SDS011;62988;55.776;37.544;2023-07-08T03:43:00;15.20;;;7.93;;
74503;SDS011;62988;55.776;37.544;2023-07-08T03:45:26;13.33;;;7.10;;
74503;SDS011;62988;55.776;37.544;2023-07-08T03:47:51;10.30;;;7.18;;
74503;SDS011;62988;55.776;37.544;2023-07-08T03:50:17;11.07;;;6.93;;
74503;SDS011;62988;55.776;37.544;2023-07-08T03:52:44;12.30;;;7.95;;
74503;SDS011;62988;55.776;37.544;2023-07-08T03:55:10;10.13;;;6.55;;
74503;SDS011;62988;55.776;37.544;2023-07-08T03:57:36;12.98;;;7.05;;
74503;SDS011;62988;55.776;37.544;2023-07-08T04:00:01;13.67;;;7.40;;
74503;SDS011;62988;55.776;37.544;2023-07-08T04:02:26;11.27;;;7.40;;
74503;SDS011;62988;55.776;37.544;2023-07-08T04:04:51;12.60;;;8.00;;
74503;SDS011;62988;55.776;37.544;2023-07-08T04:07:17;9.30;;;6.67;;
74503;SDS011;62988;55.776;37.544;2023-07-08T04:09:42;12.03;;;7.17;;
74503;SDS011;62988;55.776;37.544;2023-07-08T04:12:09;12.10;;;7.20;;
74503;SDS011;62988;55.776;37.544;2023-07-08T04:14:35;10.52;;;7.35;;
74503;SDS011;62988;55.776;37.544;2023-07-08T04:17:00;15.33;;;7.87;;
74503;SDS011;62988;55.776;37.544;2023-07-08T04:19:26;10.75;;;6.82;;
74503;SDS011;62988;55.776;37.544;2023-07-08T04:21:52;10.35;;;6.32;;
74503;SDS011;62988;55.776;37.544;2023-07-08T04:24:18;11.20;;;7.35;;
74503;SDS011;62988;55.776;37.544;2023-07-08T04:26:43;11.80;;;8.40;;
74503;SDS011;62988;55.776;37.544;2023-07-08T04:29:18;14.68;;;6.70;;
74503;SDS011;62988;55.776;37.544;2023-07-08T04:31:44;11.93;;;6.80;;
74503;SDS011;62988;55.776;37.544;2023-07-08T04:34:09;13.20;;;8.00;;
74503;SDS011;62988;55.776;37.544;2023-07-08T04:36:35;13.45;;;7.80;;
74503;SDS011;62988;55.776;37.544;2023-07-08T04:39:01;11.93;;;7.45;;
74503;SDS011;62988;55.776;37.544;2023-07-08T04:41:26;10.65;;;6.90;;
74503;SDS011;62988;55.776;37.544;2023-07-08T04:43:52;14.37;;;7.20;;
74503;SDS011;62988;55.776;37.544;2023-07-08T04:46:25;17.40;;;7.38;;
74503;SDS011;62988;55.776;37.544;2023-07-08T04:48:52;14.45;;;6.75;;
74503;SDS011;62988;55.776;37.544;2023-07-08T04:51:17;9.77;;;6.87;;
74503;SDS011;62988;55.776;37.544;2023-07-08T04:53:44;10.27;;;6.60;;
74503;SDS011;62988;55.776;37.544;2023-07-08T04:56:09;11.10;;;6.00;;
74503;SDS011;62988;55.776;37.544;2023-07-08T04:58:35;10.73;;;6.53;;
74503;SDS011;62988;55.776;37.544;2023-07-08T05:01:00;11.10;;;6.87;;
74503;SDS011;62988;55.776;37.544;2023-07-08T05:03:25;11.07;;;6.47;;
74503;SDS011;62988;55.776;37.544;2023-07-08T05:05:50;9.23;;;6.70;;
74503;SDS011;62988;55.776;37.544;2023-07-08T05:08:16;10.03;;;5.73;;
74503;SDS011;62988;55.776;37.544;2023-07-08T05:10:41;9.43;;;6.23;;
74503;SDS011;62988;55.776;37.544;2023-07-08T05:13:07;10.15;;;6.45;;
74503;SDS011;62988;55.776;37.544;2023-07-08T05:15:32;10.63;;;6.10;;
74503;SDS011;62988;55.776;37.544;2023-07-08T05:17:57;9.07;;;6.27;;
74503;SDS011;62988;55.776;37.544;2023-07-08T05:20:23;10.03;;;6.57;;
74503;SDS011;62988;55.776;37.544;2023-07-08T05:22:48;10.90;;;6.33;;
74503;SDS011;62988;55.776;37.544;2023-07-08T05:25:13;9.87;;;6.10;;
74503;SDS011;62988;55.776;37.544;2023-07-08T05:27:39;11.38;;;5.90;;
74503;SDS011;62988;55.776;37.544;2023-07-08T05:30:05;8.93;;;5.82;;
74503;SDS011;62988;55.776;37.544;2023-07-08T05:32:31;9.60;;;6.32;;
74503;SDS011;62988;55.776;37.544;2023-07-08T05:34:56;10.52;;;6.97;;
74503;SDS011;62988;55.776;37.544;2023-07-08T05:37:22;11.32;;;6.53;;
74503;SDS011;62988;55.776;37.544;2023-07-08T05:39:51;11.02;;;6.15;;
74503;SDS011;62988;55.776;37.544;2023-07-08T05:42:16;7.93;;;5.32;;
74503;SDS011;62988;55.776;37.544;2023-07-08T05:44:41;9.03;;;5.70;;
74503;SDS011;62988;55.776;37.544;2023-07-08T05:47:06;9.17;;;6.03;;
74503;SDS011;62988;55.776;37.544;2023-07-08T05:49:32;10.55;;;7.07;;
74503;SDS011;62988;55.776;37.544;2023-07-08T05:51:57;9.10;;;5.65;;
74503;SDS011;62988;55.776;37.544;2023-07-08T05:54:23;9.73;;;6.20;;
74503;SDS011;62988;55.776;37.544;2023-07-08T05:56:48;9.90;;;6.40;;
74503;SDS011;62988;55.776;37.544;2023-07-08T05:59:13;9.43;;;6.03;;
74503;SDS011;62988;55.776;37.544;2023-07-08T06:01:39;8.30;;;5.90;;
74503;SDS011;62988;55.776;37.544;2023-07-08T06:04:04;10.70;;;6.07;;
74503;SDS011;62988;55.776;37.544;2023-07-08T06:06:29;9.37;;;5.67;;
74503;SDS011;62988;55.776;37.544;2023-07-08T06:08:55;10.43;;;6.45;;
74503;SDS011;62988;55.776;37.544;2023-07-08T06:11:20;10.10;;;5.93;;
74503;SDS011;62988;55.776;37.544;2023-07-08T06:13:47;10.35;;;5.75;;
74503;SDS011;62988;55.776;37.544;2023-07-08T06:16:12;11.48;;;6.75;;
74503;SDS011;62988;55.776;37.544;2023-07-08T06:18:38;10.60;;;5.93;;
74503;SDS011;62988;55.776;37.544;2023-07-08T06:21:03;9.03;;;6.63;;
74503;SDS011;62988;55.776;37.544;2023-07-08T06:23:28;7.75;;;5.82;;
74503;SDS011;62988;55.776;37.544;2023-07-08T06:25:54;8.50;;;5.57;;
74503;SDS011;62988;55.776;37.544;2023-07-08T06:28:20;11.13;;;6.32;;
74503;SDS011;62988;55.776;37.544;2023-07-08T06:30:45;13.35;;;6.07;;
74503;SDS011;62988;55.776;37.544;2023-07-08T06:33:11;10.02;;;6.35;;
74503;SDS011;62988;55.776;37.544;2023-07-08T06:35:37;10.25;;;6.60;;
74503;SDS011;62988;55.776;37.544;2023-07-08T06:38:02;11.32;;;6.30;;
74503;SDS011;62988;55.776;37.544;2023-07-08T06:40:28;9.00;;;5.70;;
74503;SDS011;62988;55.776;37.544;2023-07-08T06:42:53;10.00;;;6.27;;
74503;SDS011;62988;55.776;37.544;2023-07-08T06:45:18;9.43;;;6.17;;
74503;SDS011;62988;55.776;37.544;2023-07-08T06:47:44;10.20;;;7.50;;
74503;SDS011;62988;55.776;37.544;2023-07-08T06:50:10;10.63;;;6.57;;
74503;SDS011;62988;55.776;37.544;2023-07-08T06:52:35;11.03;;;6.50;;
74503;SDS011;62988;55.776;37.544;2023-07-08T06:55:05;11.55;;;7.28;;
74503;SDS011;62988;55.776;37.544;2023-07-08T06:57:31;13.07;;;6.82;;
74503;SDS011;62988;55.776;37.544;2023-07-08T06:59:56;12.27;;;7.40;;
74503;SDS011;62988;55.776;37.544;2023-07-08T07:02:22;11.10;;;7.20;;
74503;SDS011;62988;55.776;37.544;2023-07-08T07:04:47;11.30;;;6.87;;
74503;SDS011;62988;55.776;37.544;2023-07-08T07:07:12;12.33;;;6.87;;
74503;SDS011;62988;55.776;37.544;2023-07-08T07:09:37;9.23;;;6.63;;
74503;SDS011;62988;55.776;37.544;2023-07-08T07:12:04;9.18;;;6.75;;
74503;SDS011;62988;55.776;37.544;2023-07-08T07:14:30;11.85;;;6.80;;
74503;SDS011;62988;55.776;37.544;2023-07-08T07:16:55;13.13;;;6.27;;
74503;SDS011;62988;55.776;37.544;2023-07-08T07:19:21;9.13;;;5.93;;
74503;SDS011;62988;55.776;37.544;2023-07-08T07:21:46;12.25;;;6.10;;
74503;SDS011;62988;55.776;37.544;2023-07-08T07:24:12;10.05;;;6.07;;
74503;SDS011;62988;55.776;37.544;2023-07-08T07:26:37;9.73;;;5.90;;
74503;SDS011;62988;55.776;37.544;2023-07-08T07:29:02;10.97;;;6.17;;
74503;SDS011;62988;55.776;37.544;2023-07-08T07:31:28;14.67;;;7.67;;
74503;SDS011;62988;55.776;37.544;2023-07-08T07:33:53;10.73;;;6.57;;
74503;SDS011;62988;55.776;37.544;2023-07-08T07:36:18;8.70;;;5.87;;
74503;SDS011;62988;55.776;37.544;2023-07-08T07:38:43;11.43;;;6.40;;
74503;SDS011;62988;55.776;37.544;2023-07-08T07:41:09;10.77;;;6.90;;
74503;SDS011;62988;55.776;37.544;2023-07-08T07:43:35;11.18;;;6.72;;
74503;SDS011;62988;55.776;37.544;2023-07-08T07:46:01;11.82;;;6.18;;
74503;SDS011;62988;55.776;37.544;2023-07-08T07:48:26;11.20;;;6.32;;
74503;SDS011;62988;55.776;37.544;2023-07-08T07:50:51;12.33;;;6.27;;
74503;SDS011;62988;55.776;37.544;2023-07-08T07:53:17;9.73;;;6.27;;
74503;SDS011;62988;55.776;37.544;2023-07-08T07:55:43;10.20;;;7.00;;
74503;SDS011;62988;55.776;37.544;2023-07-08T07:58:08;11.35;;;6.82;;
74503;SDS011;62988;55.776;37.544;2023-07-08T08:00:36;12.10;;;6.75;;
74503;SDS011;62988;55.776;37.544;2023-07-08T08:03:01;9.10;;;6.28;;
74503;SDS011;62988;55.776;37.544;2023-07-08T08:05:27;9.93;;;5.83;;
74503;SDS011;62988;55.776;37.544;2023-07-08T08:07:52;9.57;;;6.77;;
74503;SDS011;62988;55.776;37.544;2023-07-08T08:10:17;11.87;;;7.43;;
74503;SDS011;62988;55.776;37.544;2023-07-08T08:12:42;12.83;;;6.43;;
74503;SDS011;62988;55.776;37.544;2023-07-08T08:15:08;12.43;;;7.10;;
74503;SDS011;62988;55.776;37.544;2023-07-08T08:17:33;9.18;;;6.18;;
74503;SDS011;62988;55.776;37.544;2023-07-08T08:19:59;12.97;;;6.50;;
74503;SDS011;62988;55.776;37.544;2023-07-08T08:22:24;9.73;;;6.23;;
74503;SDS011;62988;55.776;37.544;2023-07-08T08:24:49;13.70;;;6.27;;
74503;SDS011;62988;55.776;37.544;2023-07-08T08:27:15;12.23;;;7.37;;
74503;SDS011;62988;55.776;37.544;2023-07-08T08:29:40;10.40;;;7.15;;
74503;SDS011;62988;55.776;37.544;2023-07-08T08:32:05;9.90;;;5.83;;
74503;SDS011;62988;55.776;37.544;2023-07-08T08:34:31;11.70;;;6.63;;
74503;SDS011;62988;55.776;37.544;2023-07-08T08:36:57;10.80;;;6.20;;
74503;SDS011;62988;55.776;37.544;2023-07-08T08:39:22;11.18;;;7.10;;
74503;SDS011;62988;55.776;37.544;2023-07-08T08:41:47;10.30;;;6.30;;
74503;SDS011;62988;55.776;37.544;2023-07-08T08:44:15;12.52;;;5.95;;
74503;SDS011;62988;55.776;37.544;2023-07-08T08:46:45;10.20;;;6.63;;
74503;SDS011;62988;55.776;37.544;2023-07-08T08:51:38;11.70;;;5.60;;
74503;SDS011;62988;55.776;37.544;2023-07-08T08:54:03;11.23;;;6.43;;
74503;SDS011;62988;55.776;37.544;2023-07-08T08:56:31;11.10;;;6.30;;
74503;SDS011;62988;55.776;37.544;2023-07-08T09:01:22;9.70;;;5.73;;
74503;SDS011;62988;55.776;37.544;2023-07-08T09:06:26;8.15;;;5.30;;
74503;SDS011;62988;55.776;37.544;2023-07-08T09:08:52;8.95;;;5.65;;
74503;SDS011;62988;55.776;37.544;2023-07-08T09:13:52;9.93;;;5.70;;
74503;SDS011;62988;55.776;37.544;2023-07-08T09:19:05;7.65;;;5.07;;
74503;SDS011;62988;55.776;37.544;2023-07-08T09:24:01;8.80;;;5.50;;
74503;SDS011;62988;55.776;37.544;2023-07-08T09:26:30;8.20;;;5.20;;
74503;SDS011;62988;55.776;37.544;2023-07-08T09:28:55;8.63;;;5.72;;
74503;SDS011;62988;55.776;37.544;2023-07-08T09:31:28;8.80;;;4.93;;
74503;SDS011;62988;55.776;37.544;2023-07-08T09:36:38;10.38;;;5.57;;
74503;SDS011;62988;55.776;37.544;2023-07-08T09:39:05;9.02;;;5.70;;
74503;SDS011;62988;55.776;37.544;2023-07-08T09:41:34;9.27;;;5.38;;
74503;SDS011;62988;55.776;37.544;2023-07-08T09:44:12;7.35;;;4.85;;
74503;SDS011;62988;55.776;37.544;2023-07-08T09:46:38;9.02;;;5.47;;
74503;SDS011;62988;55.776;37.544;2023-07-08T09:49:08;8.47;;;6.03;;
74503;SDS011;62988;55.776;37.544;2023-07-08T09:51:34;7.32;;;5.40;;
74503;SDS011;62988;55.776;37.544;2023-07-08T09:53:59;5.50;;;3.30;;
74503;SDS011;62988;55.776;37.544;2023-07-08T09:56:24;9.03;;;5.07;;
74503;SDS011;62988;55.776;37.544;2023-07-08T09:58:52;6.38;;;4.55;;
74503;SDS011;62988;55.776;37.544;2023-07-08T10:01:20;7.15;;;4.07;;
74503;SDS011;62988;55.776;37.544;2023-07-08T10:03:46;6.47;;;4.05;;
74503;SDS011;62988;55.776;37.544;2023-07-08T10:06:25;5.82;;;3.42;;
74503;SDS011;62988;55.776;37.544;2023-07-08T10:08:52;5.90;;;3.42;;
74503;SDS011;62988;55.776;37.544;2023-07-08T10:11:22;6.40;;;3.60;;
74503;SDS011;62988;55.776;37.544;2023-07-08T10:13:50;6.97;;;3.78;;
74503;SDS011;62988;55.776;37.544;2023-07-08T10:18:42;5.13;;;3.10;;
74503;SDS011;62988;55.776;37.544;2023-07-08T10:21:09;6.47;;;3.70;;
74503;SDS011;62988;55.776;37.544;2023-07-08T10:26:04;5.13;;;3.30;;
74503;SDS011;62988;55.776;37.544;2023-07-08T10:28:45;5.13;;;3.42;;
74503;SDS011;62988;55.776;37.544;2023-07-08T10:37:07;4.90;;;3.40;;
74503;SDS011;62988;55.776;37.544;2023-07-08T10:56:26;4.70;;;3.27;;
74503;SDS011;62988;55.776;37.544;2023-07-08T11:06:29;4.72;;;2.88;;
74503;SDS011;62988;55.776;37.544;2023-07-08T11:09:00;4.35;;;2.75;;
74503;SDS011;62988;55.776;37.544;2023-07-08T11:11:32;3.67;;;2.42;;
74503;SDS011;62988;55.776;37.544;2023-07-08T11:14:00;5.60;;;2.90;;
74503;SDS011;62988;55.776;37.544;2023-07-08T11:16:36;4.78;;;2.63;;
74503;SDS011;62988;55.776;37.544;2023-07-08T11:19:46;7.32;;;2.78;;
74503;SDS011;62988;55.776;37.544;2023-07-08T11:21:52;7.15;;;3.08;;
74503;SDS011;62988;55.776;37.544;2023-07-08T11:27:00;4.65;;;2.83;;
74503;SDS011;62988;55.776;37.544;2023-07-08T11:29:35;3.90;;;2.00;;
74503;SDS011;62988;55.776;37.544;2023-07-08T11:32:02;3.28;;;2.42;;
74503;SDS011;62988;55.776;37.544;2023-07-08T11:34:28;5.90;;;2.80;;
74503;SDS011;62988;55.776;37.544;2023-07-08T11:36:54;4.20;;;2.50;;
74503;SDS011;62988;55.776;37.544;2023-07-08T11:42:11;6.43;;;2.72;;
74503;SDS011;62988;55.776;37.544;2023-07-08T11:44:46;4.53;;;2.38;;
74503;SDS011;62988;55.776;37.544;2023-07-08T11:47:19;3.97;;;2.50;;
74503;SDS011;62988;55.776;37.544;2023-07-08T11:49:46;6.55;;;2.47;;
74503;SDS011;62988;55.776;37.544;2023-07-08T11:52:13;5.35;;;2.63;;
74503;SDS011;62988;55.776;37.544;2023-07-08T11:54:43;4.50;;;2.13;;
74503;SDS011;62988;55.776;37.544;2023-07-08T11:57:24;6.88;;;2.38;;
74503;SDS011;62988;55.776;37.544;2023-07-08T12:02:47;6.10;;;2.40;;
74503;SDS011;62988;55.776;37.544;2023-07-08T12:05:13;6.28;;;2.28;;
74503;SDS011;62988;55.776;37.544;2023-07-08T12:10:11;4.37;;;2.50;;
74503;SDS011;62988;55.776;37.544;2023-07-08T12:12:41;4.40;;;2.35;;
74503;SDS011;62988;55.776;37.544;2023-07-08T12:17:36;7.68;;;2.55;;
74503;SDS011;62988;55.776;37.544;2023-07-08T12:20:02;4.88;;;2.67;;
74503;SDS011;62988;55.776;37.544;2023-07-08T12:22:28;4.05;;;2.63;;
74503;SDS011;62988;55.776;37.544;2023-07-08T12:24:54;4.90;;;2.07;;
74503;SDS011;62988;55.776;37.544;2023-07-08T12:27:21;6.32;;;3.22;;
74503;SDS011;62988;55.776;37.544;2023-07-08T12:29:46;6.00;;;2.78;;
74503;SDS011;62988;55.776;37.544;2023-07-08T12:32:11;4.53;;;2.77;;
74503;SDS011;62988;55.776;37.544;2023-07-08T12:34:38;10.07;;;7.32;;
74503;SDS011;62988;55.776;37.544;2023-07-08T12:37:04;4.70;;;2.75;;
74503;SDS011;62988;55.776;37.544;2023-07-08T12:39:29;6.97;;;3.08;;
74503;SDS011;62988;55.776;37.544;2023-07-08T12:41:58;8.82;;;2.70;;
74503;SDS011;62988;55.776;37.544;2023-07-08T12:44:25;4.90;;;2.92;;
74503;SDS011;62988;55.776;37.544;2023-07-08T12:46:53;5.65;;;3.03;;
74503;SDS011;62988;55.776;37.544;2023-07-08T12:49:19;5.18;;;2.83;;
74503;SDS011;62988;55.776;37.544;2023-07-08T12:51:45;4.93;;;2.90;;
74503;SDS011;62988;55.776;37.544;2023-07-08T12:54:10;5.75;;;3.25;;
74503;SDS011;62988;55.776;37.544;2023-07-08T12:56:36;6.25;;;3.45;;
74503;SDS011;62988;55.776;37.544;2023-07-08T12:59:02;4.95;;;2.85;;
74503;SDS011;62988;55.776;37.544;2023-07-08T13:01:29;4.57;;;2.97;;
74503;SDS011;62988;55.776;37.544;2023-07-08T13:03:56;4.40;;;3.22;;
74503;SDS011;62988;55.776;37.544;2023-07-08T13:06:25;5.47;;;2.85;;
74503;SDS011;62988;55.776;37.544;2023-07-08T13:08:53;6.05;;;3.85;;
74503;SDS011;62988;55.776;37.544;2023-07-08T13:11:19;5.32;;;2.63;;
74503;SDS011;62988;55.776;37.544;2023-07-08T13:16:15;10.65;;;5.03;;
74503;SDS011;62988;55.776;37.544;2023-07-08T13:18:40;6.78;;;3.13;;
74503;SDS011;62988;55.776;37.544;2023-07-08T13:21:07;6.05;;;2.90;;
74503;SDS011;62988;55.776;37.544;2023-07-08T13:23:34;5.95;;;2.88;;
74503;SDS011;62988;55.776;37.544;2023-07-08T13:26:00;5.22;;;2.33;;
74503;SDS011;62988;55.776;37.544;2023-07-08T13:28:29;5.05;;;2.28;;
74503;SDS011;62988;55.776;37.544;2023-07-08T13:30:55;4.00;;;2.47;;
74503;SDS011;62988;55.776;37.544;2023-07-08T13:33:22;3.22;;;2.00;;
74503;SDS011;62988;55.776;37.544;2023-07-08T13:35:47;5.70;;;2.38;;
74503;SDS011;62988;55.776;37.544;2023-07-08T13:38:17;4.65;;;2.30;;
74503;SDS011;62988;55.776;37.544;2023-07-08T13:40:51;4.03;;;2.40;;
74503;SDS011;62988;55.776;37.544;2023-07-08T13:43:22;6.20;;;2.20;;
74503;SDS011;62988;55.776;37.544;2023-07-08T13:45:48;4.28;;;2.20;;
74503;SDS011;62988;55.776;37.544;2023-07-08T13:48:29;4.37;;;2.30;;
74503;SDS011;62988;55.776;37.544;2023-07-08T13:50:57;6.55;;;2.22;;
74503;SDS011;62988;55.776;37.544;2023-07-08T13:53:27;5.10;;;2.10;;
74503;SDS011;62988;55.776;37.544;2023-07-08T13:56:01;3.78;;;2.13;;
74503;SDS011;62988;55.776;37.544;2023-07-08T13:58:28;6.10;;;3.10;;
74503;SDS011;62988;55.776;37.544;2023-07-08T14:00:54;6.88;;;4.75;;
74503;SDS011;62988;55.776;37.544;2023-07-08T14:03:20;5.57;;;2.63;;
74503;SDS011;62988;55.776;37.544;2023-07-08T14:05:45;3.70;;;2.07;;
74503;SDS011;62988;55.776;37.544;2023-07-08T14:08:14;4.37;;;2.33;;
74503;SDS011;62988;55.776;37.544;2023-07-08T14:10:40;3.75;;;2.20;;
74503;SDS011;62988;55.776;37.544;2023-07-08T14:13:05;3.80;;;1.92;;
74503;SDS011;62988;55.776;37.544;2023-07-08T14:15:31;6.47;;;2.40;;
74503;SDS011;62988;55.776;37.544;2023-07-08T14:17:57;4.32;;;2.95;;
74503;SDS011;62988;55.776;37.544;2023-07-08T14:20:23;4.40;;;2.28;;
74503;SDS011;62988;55.776;37.544;2023-07-08T14:22:50;7.15;;;2.75;;
74503;SDS011;62988;55.776;37.544;2023-07-08T14:25:16;3.90;;;2.30;;
74503;SDS011;62988;55.776;37.544;2023-07-08T14:27:42;4.50;;;2.08;;
74503;SDS011;62988;55.776;37.544;2023-07-08T14:30:08;3.97;;;2.03;;
74503;SDS011;62988;55.776;37.544;2023-07-08T14:32:34;4.35;;;2.42;;
74503;SDS011;62988;55.776;37.544;2023-07-08T14:35:08;3.70;;;2.03;;
74503;SDS011;62988;55.776;37.544;2023-07-08T14:37:34;3.40;;;1.85;;
74503;SDS011;62988;55.776;37.544;2023-07-08T14:40:17;5.07;;;2.20;;
74503;SDS011;62988;55.776;37.544;2023-07-08T14:42:43;4.03;;;2.15;;
74503;SDS011;62988;55.776;37.544;2023-07-08T14:45:08;3.57;;;2.10;;
74503;SDS011;62988;55.776;37.544;2023-07-08T14:47:34;7.80;;;4.45;;
74503;SDS011;62988;55.776;37.544;2023-07-08T14:49:59;3.67;;;2.33;;
74503;SDS011;62988;55.776;37.544;2023-07-08T14:52:25;3.63;;;1.83;;
74503;SDS011;62988;55.776;37.544;2023-07-08T14:54:50;4.63;;;2.53;;
74503;SDS011;62988;55.776;37.544;2023-07-08T14:57:15;4.03;;;2.17;;
74503;SDS011;62988;55.776;37.544;2023-07-08T14:59:42;5.13;;;2.35;;
74503;SDS011;62988;55.776;37.544;2023-07-08T15:02:15;4.00;;;1.90;;
74503;SDS011;62988;55.776;37.544;2023-07-08T15:04:42;3.58;;;2.15;;
74503;SDS011;62988;55.776;37.544;2023-07-08T15:07:08;4.88;;;2.60;;
74503;SDS011;62988;55.776;37.544;2023-07-08T15:09:33;5.45;;;2.85;;
74503;SDS011;62988;55.776;37.544;2023-07-08T15:11:59;5.17;;;2.30;;
74503;SDS011;62988;55.776;37.544;2023-07-08T15:14:25;4.65;;;2.83;;
74503;SDS011;62988;55.776;37.544;2023-07-08T15:16:51;4.07;;;2.42;;
74503;SDS011;62988;55.776;37.544;2023-07-08T15:19:20;5.30;;;2.35;;
74503;SDS011;62988;55.776;37.544;2023-07-08T15:21:45;5.95;;;2.22;;
74503;SDS011;62988;55.776;37.544;2023-07-08T15:24:11;5.38;;;2.05;;
74503;SDS011;62988;55.776;37.544;2023-07-08T15:26:38;6.10;;;2.22;;
74503;SDS011;62988;55.776;37.544;2023-07-08T15:29:04;5.30;;;1.95;;
74503;SDS011;62988;55.776;37.544;2023-07-08T15:31:29;4.93;;;2.45;;
74503;SDS011;62988;55.776;37.544;2023-07-08T15:33:57;6.18;;;2.00;;
74503;SDS011;62988;55.776;37.544;2023-07-08T15:36:23;2.97;;;1.73;;
74503;SDS011;62988;55.776;37.544;2023-07-08T15:38:48;5.17;;;2.20;;
74503;SDS011;62988;55.776;37.544;2023-07-08T15:41:20;4.00;;;2.03;;